Aeroporto :
LOGIN :

Iscrizione | Disclaimer

   EN    FR    IT 

 










Sommario :    VFR   VFR Marginale   IFR   IFR Intensivo   IFR Molto Intensivo
Visibilità : 
Base nubi : 
>= 8 km
>= 3000ft
5 / 8 km
1000 / 3000 ft
1500m / 5 km
500 / 1000 ft
800 / 1500m
200 / 500 ft
< 800m
< 200 ft
Simboli :   Temporali  Nebbia  Neve Forte  Precipitazioni Forti  Vento > 20 kt
SIGMETs :   Varie  Temporali  Ghiacco  Turbolenza  Onda orograficha  Ceneri Vulcaniche






- Altitudine del aeroporto : 62 ft
- Codice IATA : TAN


GMTT - Tanger Ibn Batouta

ULTIMO METAR :
  • 300730Z 08004KT 6000 FEW020 BKN100 12/12 Q1013 NOSIG

METARs OBSOLETI :
  • 300700Z 08005KT 6000 FEW020 BKN100 10/10 Q1013 NOSIG
  • 300630Z AUTO 08005KT 6000 FEW020 BKN100 09/09 Q1013 NOSIG
  • 300600Z 07004KT 6000 FEW020 BKN100 10/09 Q1013 NOSIG
  • 300530Z AUTO 08004KT 7000 NSC 10/09 Q1013 NOSIG
  • 300500Z 08004KT 7000 NSC 10/09 Q1013 NOSIG

TAF TAF GMTT
Valido dal 30 a 06 ore il 31 a 12 ore UTC


300500Z 3006/3112 08005KT CAVOK
BECMG 3018/3022 3000 RA BKN010 BKN016
TEMPO 3101/3106 22014KT 2000 SHRA BKN016 SCT020TCU BKN030



MetMap, La meteo Aeronautica in un colpo d'occhio ! - Copyright ORBIFLY Dicembre 2007 - Disclaimer

ORBIFLY MET'MAP TEAM :

Programmazione e sviluppo : Alexandra Zaïnal
Concezione : Baudouin d'Aumeries
Aiuto per la programmazione : Marc-Olivier Méhu
Supporto tecnico e logistico : Manuel Goepfert
Aiuto per la traduzione : Arnaldo La Scala

Contatto : metmap@orbifly.com




FONTI E CREDITI :

   NOAA